Fulton, Maryland
Current Conditions -  °F | °C
As of 3:36 AM on Saturday 22 Nov 2014 (Local Time) from KFME Reporting Station
Clear Clear  
Wind Chill: 18°   Ceiling: Unl
Heat Index: 18°   Visibility: 10mi
Dew Point: 16°   Wind: 0mph
Humidity: 93%   Direction: NA
Pressure: 30.56"   Gusts: NA
Location:  39.15°N, 76.92°W
Report Text: KFME 220836Z AUTO 00000KT 10SM CLR M08/M09 A3056 RMK AO1
Loading
Personal Weather Stations






























Interactive Weather Map New forecast layout! Learn more

10-Day Weather Forecast

Advertisements
Track Severe Weather on mobile